createdAt,value
2022-12-23T00:00:44.069Z,7.40
2022-12-23T00:03:11.890Z,7.40
2022-12-23T00:05:40.541Z,7.40
2022-12-23T00:08:08.563Z,7.40
2022-12-23T00:10:39.882Z,7.40
2022-12-23T00:13:27.393Z,7.40
2022-12-23T00:16:14.899Z,7.40
2022-12-23T00:18:43.455Z,7.40
2022-12-23T00:21:14.808Z,7.40
2022-12-23T00:23:46.171Z,7.40
2022-12-23T00:26:16.733Z,7.40
2022-12-23T00:28:44.340Z,7.40
2022-12-23T00:31:12.657Z,7.40
2022-12-23T00:33:51.080Z,7.40
2022-12-23T00:36:29.918Z,7.40
2022-12-23T00:39:17.752Z,7.40
2022-12-23T00:42:04.091Z,7.40
2022-12-23T00:44:31.671Z,7.40
2022-12-23T00:46:59.013Z,7.40
2022-12-23T00:49:44.663Z,7.40
2022-12-23T00:52:15.753Z,7.40
2022-12-23T00:54:43.238Z,7.40
2022-12-23T00:57:10.859Z,7.40
2022-12-23T00:59:39.000Z,7.40
2022-12-23T01:02:24.780Z,7.40
2022-12-23T01:05:10.891Z,7.40
2022-12-23T01:07:38.088Z,7.40
2022-12-23T01:10:05.611Z,7.40
2022-12-23T01:12:32.773Z,7.50
2022-12-23T01:14:59.808Z,7.40
2022-12-23T01:17:26.960Z,7.40
2022-12-23T01:19:54.073Z,7.40
2022-12-23T01:22:21.067Z,7.40
2022-12-23T01:24:51.299Z,7.40
2022-12-23T01:27:18.757Z,7.40
2022-12-23T01:29:46.508Z,7.40
2022-12-23T01:32:14.560Z,7.40
2022-12-23T01:34:41.629Z,7.40
2022-12-23T01:37:08.704Z,7.40
2022-12-23T01:39:35.910Z,7.40
2022-12-23T01:42:21.503Z,7.40
2022-12-23T01:45:12.893Z,7.40
2022-12-23T01:48:12.001Z,7.40
2022-12-23T01:50:48.490Z,7.40
2022-12-23T01:53:21.457Z,7.40
2022-12-23T01:56:00.057Z,7.40
2022-12-23T01:58:45.319Z,7.40
2022-12-23T02:01:31.647Z,7.40
2022-12-23T02:04:10.375Z,7.40
2022-12-23T02:06:59.832Z,7.40
2022-12-23T02:09:34.518Z,7.40
2022-12-23T02:12:27.273Z,7.40
2022-12-23T02:15:53.347Z,7.40
2022-12-23T02:18:51.580Z,7.40
2022-12-23T02:21:36.679Z,7.40
2022-12-23T02:24:31.812Z,7.40
2022-12-23T02:27:30.445Z,7.40
2022-12-23T02:30:38.027Z,7.40
2022-12-23T02:33:24.157Z,7.40
2022-12-23T02:35:58.169Z,7.40
2022-12-23T02:38:35.002Z,7.40
2022-12-23T02:41:15.752Z,7.40
2022-12-23T02:43:54.258Z,7.40
2022-12-23T02:46:37.037Z,7.40
2022-12-23T02:49:29.334Z,7.40
2022-12-23T02:52:01.909Z,7.40
2022-12-23T02:54:34.208Z,7.40
2022-12-23T02:57:05.011Z,7.40
2022-12-23T02:59:43.610Z,7.40
2022-12-23T03:02:10.927Z,7.40
2022-12-23T03:04:38.374Z,7.40
2022-12-23T03:07:07.821Z,7.40
2022-12-23T03:09:44.703Z,7.40
2022-12-23T03:12:41.441Z,7.30
2022-12-23T03:15:23.432Z,7.40
2022-12-23T03:18:16.640Z,7.30
2022-12-23T03:21:14.798Z,7.30
2022-12-23T03:24:35.813Z,7.30
2022-12-23T03:27:33.560Z,7.30
2022-12-23T03:30:05.481Z,7.30
2022-12-23T03:32:56.125Z,7.30
2022-12-23T03:35:35.405Z,7.30
2022-12-23T03:38:04.726Z,7.30
2022-12-23T03:40:38.778Z,7.30
2022-12-23T03:43:12.511Z,7.30
2022-12-23T03:45:47.844Z,7.30
2022-12-23T03:48:36.964Z,7.40
2022-12-23T03:51:14.506Z,7.40
2022-12-23T03:54:00.065Z,7.40
2022-12-23T03:56:42.539Z,7.40
2022-12-23T03:59:20.345Z,7.40
2022-12-23T04:02:30.549Z,7.40
2022-12-23T04:05:16.791Z,7.40
2022-12-23T04:07:55.100Z,7.40
2022-12-23T04:10:23.681Z,7.40
2022-12-23T04:12:51.474Z,7.40
2022-12-23T04:15:24.681Z,7.40
2022-12-23T04:17:53.570Z,7.40
2022-12-23T04:20:20.848Z,7.40
2022-12-23T04:22:48.214Z,7.40
2022-12-23T04:25:17.557Z,7.40
2022-12-23T04:27:44.785Z,7.40
2022-12-23T04:30:16.497Z,7.40
2022-12-23T04:32:43.740Z,7.40
2022-12-23T04:35:12.547Z,7.30
2022-12-23T04:37:40.013Z,7.40
2022-12-23T04:40:08.051Z,7.30
2022-12-23T04:42:35.686Z,7.30
2022-12-23T04:45:03.771Z,7.30
2022-12-23T04:47:30.912Z,7.30
2022-12-23T04:50:00.883Z,7.30
2022-12-23T04:52:28.051Z,7.30
2022-12-23T04:54:55.083Z,7.30
2022-12-23T04:57:22.397Z,7.30
2022-12-23T04:59:49.537Z,7.30
2022-12-23T05:02:16.740Z,7.30
2022-12-23T05:04:43.996Z,7.30
2022-12-23T05:07:11.111Z,7.30
2022-12-23T05:09:38.199Z,7.20
2022-12-23T05:12:05.496Z,7.20
2022-12-23T05:14:32.723Z,7.20
2022-12-23T05:17:06.980Z,7.20
2022-12-23T05:19:35.397Z,7.20
2022-12-23T05:22:02.436Z,7.20
2022-12-23T05:24:29.524Z,7.20
2022-12-23T05:27:00.136Z,7.20
2022-12-23T05:29:28.391Z,7.20
2022-12-23T05:31:56.094Z,7.20
2022-12-23T05:34:23.282Z,7.20
2022-12-23T05:36:50.322Z,7.20
2022-12-23T05:39:17.372Z,7.20
2022-12-23T05:41:45.832Z,7.20
2022-12-23T05:44:12.840Z,7.10
2022-12-23T05:46:40.064Z,7.20
2022-12-23T05:49:07.366Z,7.10
2022-12-23T05:51:34.542Z,7.10
2022-12-23T05:54:01.624Z,7.10
2022-12-23T05:56:28.711Z,7.00
2022-12-23T05:58:55.877Z,7.10
2022-12-23T06:01:22.975Z,7.00
2022-12-23T06:03:50.032Z,7.00
2022-12-23T06:06:17.455Z,7.00
2022-12-23T06:08:44.596Z,7.00
2022-12-23T06:11:12.958Z,7.00
2022-12-23T06:13:39.980Z,6.90
2022-12-23T06:16:07.381Z,6.90
2022-12-23T06:18:34.514Z,6.90
2022-12-23T06:21:01.612Z,6.90
2022-12-23T06:23:28.762Z,6.90
2022-12-23T06:26:01.170Z,6.90
2022-12-23T06:28:29.386Z,6.80
2022-12-23T06:30:57.531Z,6.80
2022-12-23T06:33:25.376Z,6.80
2022-12-23T06:35:52.653Z,6.80
2022-12-23T06:38:19.758Z,6.80
2022-12-23T06:40:46.930Z,6.80
2022-12-23T06:43:14.643Z,6.80
2022-12-23T06:45:46.598Z,6.80
2022-12-23T06:48:13.801Z,6.80
2022-12-23T06:50:41.066Z,6.80
2022-12-23T06:53:08.966Z,6.80
2022-12-23T06:55:36.162Z,6.80
2022-12-23T06:58:03.575Z,6.80
2022-12-23T07:00:30.909Z,6.80
2022-12-23T07:02:58.388Z,6.80
2022-12-23T07:05:25.559Z,6.80
2022-12-23T07:07:52.674Z,6.80
2022-12-23T07:10:19.900Z,6.80
2022-12-23T07:12:50.677Z,6.80
2022-12-23T07:15:18.301Z,6.80
2022-12-23T07:17:45.423Z,6.70
2022-12-23T07:20:14.293Z,6.70
2022-12-23T07:22:41.565Z,6.80
2022-12-23T07:25:09.363Z,6.80
2022-12-23T07:27:36.420Z,6.80
2022-12-23T07:30:04.140Z,6.80
2022-12-23T07:32:31.378Z,6.80
2022-12-23T07:34:58.440Z,6.80
2022-12-23T07:37:25.602Z,6.80
2022-12-23T07:39:52.784Z,6.80
2022-12-23T07:45:07.769Z,6.80
2022-12-23T07:47:35.408Z,6.80
2022-12-23T07:50:02.462Z,6.80
2022-12-23T07:52:32.461Z,6.80
2022-12-23T07:54:59.569Z,6.80
2022-12-23T07:57:26.688Z,6.80
2022-12-23T07:59:53.909Z,6.80
2022-12-23T08:02:25.110Z,6.80
2022-12-23T08:04:52.564Z,6.80
2022-12-23T08:07:19.745Z,6.80
2022-12-23T08:09:46.883Z,6.80
2022-12-23T08:12:14.341Z,6.80
2022-12-23T08:14:41.465Z,6.80
2022-12-23T08:17:08.896Z,6.80
2022-12-23T08:19:36.269Z,6.80
2022-12-23T08:22:03.639Z,6.80
2022-12-23T08:24:30.773Z,6.80
2022-12-23T08:26:58.359Z,6.90
2022-12-23T08:29:27.231Z,6.80
2022-12-23T08:31:56.169Z,6.90
2022-12-23T08:34:23.261Z,6.90
2022-12-23T08:36:50.381Z,6.90
2022-12-23T08:39:18.093Z,6.90
2022-12-23T08:41:48.045Z,6.90
2022-12-23T08:44:16.945Z,6.90
2022-12-23T08:46:44.765Z,6.90
2022-12-23T08:49:12.088Z,6.90
2022-12-23T08:51:39.917Z,6.90
2022-12-23T08:54:07.622Z,6.90
2022-12-23T08:56:39.211Z,6.90
2022-12-23T08:59:07.537Z,6.90
2022-12-23T09:01:35.320Z,6.90
2022-12-23T09:04:04.755Z,7.00
2022-12-23T09:06:41.236Z,7.00
2022-12-23T09:09:11.308Z,7.00
2022-12-23T09:11:39.156Z,7.10
2022-12-23T09:14:08.701Z,7.10
2022-12-23T09:16:36.430Z,7.10
2022-12-23T09:19:04.717Z,7.10
2022-12-23T09:21:32.023Z,7.10
2022-12-23T09:23:59.063Z,7.20
2022-12-23T09:26:29.852Z,7.10
2022-12-23T09:28:57.924Z,7.20
2022-12-23T09:31:29.263Z,7.20
2022-12-23T09:33:57.817Z,7.30
2022-12-23T09:36:25.080Z,7.30
2022-12-23T09:38:57.664Z,7.30
2022-12-23T09:41:48.876Z,7.30
2022-12-23T09:44:47.375Z,7.30
2022-12-23T09:47:25.221Z,7.40
2022-12-23T09:49:58.608Z,7.50
2022-12-23T09:52:43.579Z,7.50
2022-12-23T09:55:12.188Z,7.50
2022-12-23T09:58:01.040Z,7.50
2022-12-23T10:00:37.371Z,7.50
2022-12-23T10:03:29.503Z,7.50
2022-12-23T10:06:15.955Z,7.50
2022-12-23T10:08:48.090Z,7.60
2022-12-23T10:11:27.844Z,7.60
2022-12-23T10:13:58.892Z,7.60
2022-12-23T10:16:40.476Z,7.60
2022-12-23T10:19:22.244Z,7.70
2022-12-23T10:22:02.034Z,7.70
2022-12-23T10:24:39.156Z,7.70
2022-12-23T10:27:38.460Z,7.70
2022-12-23T10:30:42.435Z,7.60
2022-12-23T10:33:47.081Z,7.60
2022-12-23T10:36:56.214Z,7.60
2022-12-23T10:40:04.109Z,7.60
2022-12-23T10:42:52.062Z,7.70
2022-12-23T10:45:40.559Z,7.70
2022-12-23T10:48:55.478Z,7.70
2022-12-23T10:51:33.272Z,7.80
2022-12-23T10:54:04.048Z,7.80
2022-12-23T10:56:31.847Z,7.90
2022-12-23T10:59:01.213Z,7.90
2022-12-23T11:01:33.375Z,7.80
2022-12-23T11:04:17.416Z,7.80
2022-12-23T11:07:10.682Z,7.80
2022-12-23T11:10:03.349Z,7.90
2022-12-23T11:12:52.627Z,7.90
2022-12-23T11:15:39.599Z,7.90
2022-12-23T11:18:12.571Z,7.90
2022-12-23T11:20:42.648Z,7.80
2022-12-23T11:23:31.844Z,7.90
2022-12-23T11:26:07.399Z,7.90
2022-12-23T11:28:47.033Z,7.90
2022-12-23T11:31:17.040Z,7.90
2022-12-23T11:34:00.144Z,7.90
2022-12-23T11:36:29.817Z,7.90
2022-12-23T11:39:25.893Z,7.90
2022-12-23T11:42:02.755Z,8.00
2022-12-23T11:44:43.449Z,8.00
2022-12-23T11:47:22.973Z,8.00
2022-12-23T11:49:51.658Z,7.90
2022-12-23T11:52:22.872Z,7.90
2022-12-23T11:55:02.418Z,7.90
2022-12-23T11:57:43.801Z,8.00
2022-12-23T12:00:25.657Z,8.00
2022-12-23T12:02:57.153Z,8.00
2022-12-23T12:05:41.634Z,8.00
2022-12-23T12:08:21.624Z,8.00
2022-12-23T12:10:53.174Z,8.00
2022-12-23T12:13:36.896Z,7.90
2022-12-23T12:16:51.445Z,7.90
2022-12-23T12:19:35.828Z,7.90
2022-12-23T12:22:12.889Z,7.90
2022-12-23T12:24:45.325Z,7.90
2022-12-23T12:27:12.836Z,7.80
2022-12-23T12:29:57.691Z,7.80
2022-12-23T12:33:05.285Z,7.90
2022-12-23T12:35:45.621Z,7.90
2022-12-23T12:38:27.277Z,7.90
2022-12-23T12:41:11.439Z,7.90
2022-12-23T12:43:46.667Z,7.90
2022-12-23T12:46:43.033Z,7.90
2022-12-23T12:49:36.078Z,7.90
2022-12-23T12:52:35.264Z,7.80
2022-12-23T12:55:29.997Z,7.90
2022-12-23T12:57:57.380Z,7.90
2022-12-23T13:00:25.494Z,7.90
2022-12-23T13:03:26.399Z,7.90
2022-12-23T13:06:27.047Z,7.90
2022-12-23T13:09:21.469Z,7.90
2022-12-23T13:12:05.674Z,7.90
2022-12-23T13:15:15.746Z,7.90
2022-12-23T13:18:11.576Z,7.80
2022-12-23T13:21:16.292Z,7.80
2022-12-23T13:23:52.096Z,7.80
2022-12-23T13:27:02.586Z,7.80
2022-12-23T13:29:38.384Z,7.80
2022-12-23T13:32:46.054Z,7.80
2022-12-23T13:35:41.480Z,7.80
2022-12-23T13:38:45.189Z,7.80
2022-12-23T13:41:18.253Z,7.80
2022-12-23T13:44:07.504Z,7.80
2022-12-23T13:47:26.752Z,7.80
2022-12-23T13:50:11.684Z,7.80
2022-12-23T13:53:01.715Z,7.80
2022-12-23T13:55:57.688Z,7.80
2022-12-23T13:58:27.503Z,7.80
2022-12-23T14:01:08.216Z,7.80
2022-12-23T14:03:38.812Z,7.70
2022-12-23T14:06:24.669Z,7.70
2022-12-23T14:08:54.357Z,7.70
2022-12-23T14:11:30.419Z,7.70
2022-12-23T14:14:02.240Z,7.70
2022-12-23T14:16:50.779Z,7.70
2022-12-23T14:20:02.359Z,7.70
2022-12-23T14:22:48.372Z,7.70
2022-12-23T14:26:06.115Z,7.70
2022-12-23T14:29:01.747Z,7.70
2022-12-23T14:31:41.622Z,7.70
2022-12-23T14:34:18.005Z,7.70
2022-12-23T14:37:25.306Z,7.70
2022-12-23T14:39:53.747Z,7.70
2022-12-23T14:42:43.367Z,7.70
2022-12-23T14:45:42.715Z,7.70
2022-12-23T14:48:47.835Z,7.70
2022-12-23T14:51:14.943Z,7.70
2022-12-23T14:53:54.435Z,7.70
2022-12-23T14:56:39.395Z,7.70
2022-12-23T15:00:16.117Z,7.70
2022-12-23T15:02:43.325Z,7.70
2022-12-23T15:05:10.901Z,7.70
2022-12-23T15:07:42.482Z,7.70
2022-12-23T15:10:30.249Z,7.70
2022-12-23T15:13:03.048Z,7.70
2022-12-23T15:15:31.411Z,7.70
2022-12-23T15:18:12.808Z,7.70
2022-12-23T15:20:40.849Z,7.70
2022-12-23T15:23:17.993Z,7.70
2022-12-23T15:25:48.106Z,7.70
2022-12-23T15:28:21.970Z,7.70
2022-12-23T15:30:53.908Z,7.70
2022-12-23T15:34:01.551Z,7.70
2022-12-23T15:36:14.356Z,7.70
2022-12-23T15:38:42.000Z,7.70
2022-12-23T15:41:18.695Z,7.70
2022-12-23T15:43:46.796Z,7.70
2022-12-23T15:46:29.078Z,7.70
2022-12-23T15:48:57.380Z,7.70
2022-12-23T15:55:25.370Z,7.70
2022-12-23T15:57:53.080Z,7.70
2022-12-23T16:00:54.887Z,7.70
2022-12-23T16:03:30.434Z,7.70
2022-12-23T16:06:17.541Z,7.70
2022-12-23T16:08:45.839Z,7.70
2022-12-23T16:11:18.801Z,7.70
2022-12-23T16:14:03.044Z,7.70
2022-12-23T16:16:44.687Z,7.70
2022-12-23T16:19:44.060Z,7.70
2022-12-23T16:22:21.101Z,7.70
2022-12-23T16:25:11.619Z,7.80
2022-12-23T16:28:04.060Z,7.70
2022-12-23T16:30:35.666Z,7.70
2022-12-23T16:33:06.933Z,7.70
2022-12-23T16:35:37.188Z,7.70
2022-12-23T16:38:26.350Z,7.70
2022-12-23T16:40:56.301Z,7.70
2022-12-23T16:43:25.212Z,7.70
2022-12-23T16:45:57.675Z,7.70
2022-12-23T16:48:42.493Z,7.70
2022-12-23T16:51:14.305Z,7.70
2022-12-23T16:53:41.556Z,7.70
2022-12-23T16:56:18.126Z,7.70
2022-12-23T16:58:45.844Z,7.70
2022-12-23T17:01:35.977Z,7.70
2022-12-23T17:04:03.270Z,7.70
2022-12-23T17:06:30.837Z,7.70
2022-12-23T17:08:58.297Z,7.60
2022-12-23T17:11:51.207Z,7.70
2022-12-23T17:14:25.184Z,7.60
2022-12-23T17:16:53.120Z,7.60
2022-12-23T17:19:27.635Z,7.60
2022-12-23T17:22:01.647Z,7.70
2022-12-23T17:24:29.025Z,7.60
2022-12-23T17:26:59.369Z,7.70
2022-12-23T17:29:27.171Z,7.60
2022-12-23T17:31:54.763Z,7.60
2022-12-23T17:34:24.357Z,7.60
2022-12-23T17:36:51.818Z,7.60
2022-12-23T17:39:21.320Z,7.60
2022-12-23T17:41:49.444Z,7.60
2022-12-23T17:44:18.143Z,7.60
2022-12-23T17:46:46.054Z,7.60
2022-12-23T17:49:13.479Z,7.60
2022-12-23T17:51:41.510Z,7.50
2022-12-23T17:54:26.267Z,7.50
2022-12-23T17:56:53.448Z,7.50
2022-12-23T17:59:21.687Z,7.50
2022-12-23T18:01:49.205Z,7.50
2022-12-23T18:04:16.518Z,7.50
2022-12-23T18:06:43.707Z,7.50
2022-12-23T18:09:10.873Z,7.50
2022-12-23T18:11:44.867Z,7.50
2022-12-23T18:14:22.711Z,7.50
2022-12-23T18:16:50.090Z,7.50
2022-12-23T18:19:20.640Z,7.50
2022-12-23T18:21:48.581Z,7.40
2022-12-23T18:24:16.165Z,7.50
2022-12-23T18:26:44.073Z,7.40
2022-12-23T18:29:11.245Z,7.50
2022-12-23T18:31:50.893Z,7.50
2022-12-23T18:34:20.380Z,7.40
2022-12-23T18:36:48.477Z,7.50
2022-12-23T18:39:15.924Z,7.40
2022-12-23T18:41:43.243Z,7.50
2022-12-23T18:44:20.517Z,7.50
2022-12-23T18:46:49.280Z,7.40
2022-12-23T18:49:16.584Z,7.50
2022-12-23T18:51:43.764Z,7.50
2022-12-23T18:54:15.888Z,7.50
2022-12-23T18:56:43.875Z,7.40
2022-12-23T18:59:27.539Z,7.40
2022-12-23T19:01:57.344Z,7.40
2022-12-23T19:04:25.439Z,7.40
2022-12-23T19:06:53.376Z,7.40
2022-12-23T19:09:22.696Z,7.40
2022-12-23T19:11:52.905Z,7.40
2022-12-23T19:14:20.459Z,7.40
2022-12-23T19:16:51.448Z,7.40
2022-12-23T19:19:21.178Z,7.40
2022-12-23T19:21:48.576Z,7.40
2022-12-23T19:24:15.795Z,7.40
2022-12-23T19:26:42.966Z,7.40
2022-12-23T19:29:10.439Z,7.40
2022-12-23T19:31:37.599Z,7.40
2022-12-23T19:34:09.752Z,7.40
2022-12-23T19:36:41.706Z,7.40
2022-12-23T19:39:16.382Z,7.40
2022-12-23T19:41:44.713Z,7.40
2022-12-23T19:44:12.000Z,7.40
2022-12-23T19:46:39.189Z,7.30
2022-12-23T19:49:06.581Z,7.40
2022-12-23T19:51:33.829Z,7.40
2022-12-23T19:54:01.157Z,7.40
2022-12-23T19:56:30.400Z,7.30
2022-12-23T19:58:57.606Z,7.30
2022-12-23T20:01:27.319Z,7.30
2022-12-23T20:03:56.194Z,7.30
2022-12-23T20:06:29.565Z,7.30
2022-12-23T20:09:00.882Z,7.30
2022-12-23T20:11:30.718Z,7.30
2022-12-23T20:14:00.488Z,7.30
2022-12-23T20:16:28.608Z,7.30
2022-12-23T20:18:56.754Z,7.30
2022-12-23T20:21:24.272Z,7.30
2022-12-23T20:23:52.826Z,7.30
2022-12-23T20:26:20.613Z,7.30
2022-12-23T20:28:47.767Z,7.30
2022-12-23T20:31:28.083Z,7.20
2022-12-23T20:33:55.999Z,7.30
2022-12-23T20:36:28.970Z,7.20
2022-12-23T20:38:56.918Z,7.20
2022-12-23T20:41:27.760Z,7.20
2022-12-23T20:46:45.598Z,7.20
2022-12-23T20:49:12.849Z,7.20
2022-12-23T20:51:40.066Z,7.20
2022-12-23T20:54:07.328Z,7.20
2022-12-23T20:56:34.547Z,7.20
2022-12-23T20:59:03.802Z,7.20
2022-12-23T21:01:38.051Z,7.20
2022-12-23T21:04:09.529Z,7.20
2022-12-23T21:06:37.173Z,7.20
2022-12-23T21:09:07.359Z,7.10
2022-12-23T21:11:39.738Z,7.20
2022-12-23T21:14:07.961Z,7.20
2022-12-23T21:16:38.102Z,7.10
2022-12-23T21:19:12.854Z,7.10
2022-12-23T21:21:40.039Z,7.10
2022-12-23T21:24:07.256Z,7.10
2022-12-23T21:26:35.425Z,7.10
2022-12-23T21:29:05.796Z,7.10
2022-12-23T21:31:35.679Z,7.10
2022-12-23T21:34:03.362Z,7.10
2022-12-23T21:36:35.034Z,7.10
2022-12-23T21:39:02.839Z,7.10
2022-12-23T21:41:34.097Z,7.10
2022-12-23T21:44:01.491Z,7.10
2022-12-23T21:46:29.308Z,7.10
2022-12-23T21:48:58.255Z,7.10
2022-12-23T21:51:38.536Z,7.10
2022-12-23T21:54:07.327Z,7.10
2022-12-23T21:56:34.946Z,7.10
2022-12-23T21:59:07.211Z,7.10
2022-12-23T22:01:35.269Z,7.10
2022-12-23T22:04:03.154Z,7.10
2022-12-23T22:06:37.493Z,7.10
2022-12-23T22:09:08.788Z,7.10
2022-12-23T22:11:37.627Z,7.10
2022-12-23T22:14:07.574Z,7.10
2022-12-23T22:16:36.120Z,7.10
2022-12-23T22:19:05.953Z,7.10
2022-12-23T22:21:34.601Z,7.10
2022-12-23T22:24:05.904Z,7.10
2022-12-23T22:26:34.132Z,7.10
2022-12-23T22:29:04.741Z,7.10
2022-12-23T22:31:53.009Z,7.10
2022-12-23T22:34:22.583Z,7.10
2022-12-23T22:36:49.855Z,7.10
2022-12-23T22:39:21.059Z,7.10
2022-12-23T22:41:52.510Z,7.10
2022-12-23T22:44:20.507Z,7.10
2022-12-23T22:46:48.066Z,7.10
2022-12-23T22:49:16.030Z,7.10
2022-12-23T22:51:44.174Z,7.10
2022-12-23T22:54:11.320Z,7.20
2022-12-23T22:56:38.516Z,7.10
2022-12-23T22:59:06.058Z,7.20
2022-12-23T23:01:35.871Z,7.20
2022-12-23T23:04:04.380Z,7.20
2022-12-23T23:06:39.380Z,7.20
2022-12-23T23:09:09.903Z,7.20
2022-12-23T23:11:37.056Z,7.20
2022-12-23T23:14:04.822Z,7.20
2022-12-23T23:16:34.752Z,7.20
2022-12-23T23:19:03.953Z,7.20
2022-12-23T23:21:31.622Z,7.20
2022-12-23T23:23:58.630Z,7.20
2022-12-23T23:26:27.447Z,7.20
2022-12-23T23:28:55.680Z,7.20
2022-12-23T23:34:10.872Z,7.30
2022-12-23T23:36:38.248Z,7.30
2022-12-23T23:39:05.506Z,7.30
2022-12-23T23:41:32.798Z,7.30
2022-12-23T23:44:00.033Z,7.30
2022-12-23T23:46:27.303Z,7.30
2022-12-23T23:48:54.329Z,7.30
2022-12-23T23:51:21.438Z,7.30
2022-12-23T23:53:48.678Z,7.30
2022-12-23T23:56:22.069Z,7.30
2022-12-23T23:58:52.344Z,7.30
